Time;durP1;ratioP1;P1;durP2;ratioP2;P2;SDS_P1;SDS_P2;PMS_P1;PMS_P2;Temp;Humidity;BMP_temperature;BMP_pressure;BME280_temperature;BME280_humidity;BME280_pressure;Samples;Min_cycle;Max_cycle;Signal;HPM_P1;HPM_P2
2022/04/20 00:00:28;;;;;;;3.47;2.63;;;13.90;95.90;;;;;;5013287;28;20168;-79
2022/04/20 00:02:53;;;;;;;3.92;2.72;;;13.90;95.90;;;;;;5013445;28;20173;-80
2022/04/20 00:05:19;;;;;;;2.97;2.60;;;13.70;96.10;;;;;;5017753;28;20185;-79
2022/04/20 00:07:45;;;;;;;2.72;2.50;;;13.70;96.40;;;;;;5019312;28;20663;-77
2022/04/20 00:10:10;;;;;;;3.13;2.50;;;13.60;96.30;;;;;;5015688;28;20183;-79
2022/04/20 00:12:36;;;;;;;6.30;2.75;;;13.60;96.40;;;;;;5015624;28;20164;-89
2022/04/20 00:15:02;;;;;;;3.58;2.53;;;13.70;96.40;;;;;;5013224;28;20235;-80
2022/04/20 00:17:27;;;;;;;5.28;3.17;;;13.50;96.60;;;;;;5013042;28;20254;-87
2022/04/20 00:19:53;;;;;;;4.38;2.95;;;13.40;96.80;;;;;;5013682;28;20175;-86
2022/04/20 00:22:18;;;;;;;10.07;2.40;;;13.30;96.90;;;;;;5013098;28;20671;-85
2022/04/20 00:24:44;;;;;;;5.70;2.70;;;13.40;97.00;;;;;;5013175;28;20238;-78
2022/04/20 00:27:09;;;;;;;2.80;2.50;;;13.40;96.90;;;;;;5013421;28;20178;-86
2022/04/20 00:29:35;;;;;;;3.50;2.67;;;13.30;96.90;;;;;;5012924;28;20203;-79
2022/04/20 00:32:01;;;;;;;2.90;2.33;;;13.30;97.10;;;;;;5013133;28;20168;-77
2022/04/20 00:34:26;;;;;;;5.45;3.05;;;13.10;97.20;;;;;;5012899;28;20657;-81
2022/04/20 00:36:53;;;;;;;9.70;2.17;;;13.10;97.30;;;;;;5013197;28;20208;-74
2022/04/20 00:39:19;;;;;;;3.80;2.70;;;13.20;97.10;;;;;;5016912;28;20306;-84
2022/04/20 00:41:45;;;;;;;6.93;2.55;;;13.10;97.10;;;;;;5017075;28;20173;-91
2022/04/20 00:44:11;;;;;;;9.38;2.35;;;13.10;97.30;;;;;;5016755;28;20185;-92
2022/04/20 00:46:38;;;;;;;3.15;2.85;;;12.90;97.40;;;;;;5016679;28;20173;-78
2022/04/20 00:49:05;;;;;;;7.15;2.70;;;12.90;97.50;;;;;;5016438;28;20641;-83
2022/04/20 00:51:31;;;;;;;13.60;3.78;;;12.80;97.60;;;;;;5015191;28;20792;-80
2022/04/20 00:54:01;;;;;;;2.78;2.42;;;12.80;97.70;;;;;;5016351;28;20295;-88
2022/04/20 00:56:30;;;;;;;4.05;2.47;;;12.80;97.70;;;;;;5031381;28;20212;-82
2022/04/20 00:58:58;;;;;;;4.32;2.97;;;12.90;97.50;;;;;;5031567;28;20176;-76
2022/04/20 01:01:26;;;;;;;5.43;2.90;;;12.90;97.60;;;;;;5016271;28;20682;-78
2022/04/20 01:03:52;;;;;;;8.00;2.95;;;12.80;97.70;;;;;;5016756;28;20227;-86
2022/04/20 01:06:21;;;;;;;6.80;3.13;;;12.90;97.60;;;;;;5016777;28;20172;-91
2022/04/20 01:08:46;;;;;;;3.83;3.00;;;12.90;97.60;;;;;;5016636;28;20165;-78
2022/04/20 01:11:12;;;;;;;6.80;2.83;;;12.80;97.70;;;;;;5017675;28;20175;-80
2022/04/20 01:13:37;;;;;;;8.13;3.28;;;12.80;97.80;;;;;;5029650;28;20185;-76
2022/04/20 01:16:03;;;;;;;4.68;3.40;;;12.60;97.90;;;;;;5031368;28;20200;-81
2022/04/20 01:18:29;;;;;;;3.65;2.83;;;12.60;98.00;;;;;;5033045;28;20172;-85
2022/04/20 01:20:54;;;;;;;3.42;3.00;;;12.60;98.00;;;;;;5050469;28;20228;-86
2022/04/20 01:23:20;;;;;;;4.07;2.80;;;12.50;98.10;;;;;;5032661;28;20164;-80
2022/04/20 01:25:46;;;;;;;11.40;2.90;;;12.50;98.10;;;;;;5031419;28;20538;-82
2022/04/20 01:28:11;;;;;;;3.67;3.00;;;12.50;98.20;;;;;;5032875;28;20179;-80
2022/04/20 01:30:37;;;;;;;6.20;3.35;;;12.40;98.40;;;;;;5033735;28;20161;-79
2022/04/20 01:33:03;;;;;;;12.25;3.30;;;12.50;98.30;;;;;;5032519;28;20165;-77
2022/04/20 01:35:29;;;;;;;6.15;2.95;;;12.60;98.20;;;;;;5030847;28;20149;-76
2022/04/20 01:37:54;;;;;;;2.78;2.47;;;12.40;98.40;;;;;;5031618;28;20208;-75
2022/04/20 01:40:20;;;;;;;3.97;2.72;;;12.30;98.80;;;;;;5022113;28;20173;-77
2022/04/20 01:42:46;;;;;;;3.45;2.65;;;12.20;98.70;;;;;;5014907;28;20194;-88
2022/04/20 01:45:11;;;;;;;10.05;2.88;;;12.20;98.90;;;;;;5016194;28;20200;-85
2022/04/20 01:47:37;;;;;;;5.30;2.70;;;12.10;98.90;;;;;;5015694;28;20223;-87
2022/04/20 01:50:04;;;;;;;5.18;2.95;;;12.20;98.90;;;;;;5014582;28;20179;-84
2022/04/20 01:52:30;;;;;;;6.60;3.33;;;12.10;98.90;;;;;;5015825;28;20207;-91
2022/04/20 01:54:55;;;;;;;3.38;2.92;;;12.10;98.90;;;;;;5015481;28;20192;-80
2022/04/20 01:57:21;;;;;;;4.00;3.28;;;12.10;99.10;;;;;;5015716;28;20208;-82
2022/04/20 01:59:47;;;;;;;4.88;2.40;;;12.00;99.30;;;;;;5015362;28;20184;-83
2022/04/20 02:04:56;;;;;;;5.22;2.92;;;12.00;99.30;;;;;;5014776;28;20235;-90
2022/04/20 02:07:22;;;;;;;4.15;2.25;;;12.10;99.30;;;;;;5015184;28;20164;-82
2022/04/20 02:09:47;;;;;;;2.72;2.50;;;12.00;99.20;;;;;;5014820;28;20500;-78
2022/04/20 02:12:13;;;;;;;2.67;2.40;;;12.00;99.30;;;;;;5014917;28;20172;-82
2022/04/20 02:14:39;;;;;;;4.05;3.60;;;11.80;99.50;;;;;;5014419;28;20675;-75
2022/04/20 02:17:05;;;;;;;3.53;2.60;;;11.70;99.80;;;;;;5014712;28;20286;-81
2022/04/20 02:19:30;;;;;;;5.32;3.00;;;11.70;99.90;;;;;;5014998;28;20169;-84
2022/04/20 02:21:56;;;;;;;3.70;2.78;;;11.70;99.90;;;;;;5014661;28;20179;-86
2022/04/20 02:24:21;;;;;;;3.05;2.67;;;11.60;99.90;;;;;;5014590;28;20194;-89
2022/04/20 02:26:47;;;;;;;4.85;2.70;;;11.60;99.90;;;;;;5014548;28;20169;-81
2022/04/20 02:29:13;;;;;;;4.85;3.65;;;11.70;99.90;;;;;;5014302;28;20248;-85
2022/04/20 02:31:39;;;;;;;4.53;3.20;;;11.70;99.90;;;;;;5014655;28;20168;-84
2022/04/20 02:34:04;;;;;;;10.38;3.00;;;11.80;99.90;;;;;;5014542;28;20191;-82
2022/04/20 02:36:31;;;;;;;3.63;3.08;;;11.90;99.70;;;;;;5014262;28;20215;-79
2022/04/20 02:38:57;;;;;;;3.15;2.75;;;11.90;99.70;;;;;;5014705;28;20684;-75
2022/04/20 02:41:23;;;;;;;6.53;3.30;;;11.80;99.90;;;;;;5014875;28;20255;-75
2022/04/20 02:43:49;;;;;;;4.93;3.65;;;11.80;99.80;;;;;;5014360;28;20279;-80
2022/04/20 02:46:15;;;;;;;2.83;2.30;;;11.80;99.90;;;;;;5014377;28;20184;-76
2022/04/20 02:48:41;;;;;;;3.13;2.83;;;11.70;99.90;;;;;;5014317;28;20161;-85
2022/04/20 02:51:08;;;;;;;2.92;2.60;;;11.80;99.90;;;;;;5013203;28;20183;-89
2022/04/20 02:53:33;;;;;;;4.00;3.05;;;11.80;99.90;;;;;;5014576;28;20189;-82
2022/04/20 02:56:00;;;;;;;4.88;3.17;;;11.60;99.90;;;;;;5014638;28;20205;-86
2022/04/20 02:58:25;;;;;;;7.07;2.80;;;11.30;99.90;;;;;;5013834;28;20180;-83
2022/04/20 03:00:51;;;;;;;2.55;2.30;;;11.40;99.90;;;;;;5013878;28;20172;-79
2022/04/20 03:03:16;;;;;;;2.65;2.40;;;11.30;99.90;;;;;;5014127;28;20165;-80
2022/04/20 03:05:42;;;;;;;3.28;2.40;;;11.30;99.90;;;;;;5013900;28;20247;-78
2022/04/20 03:08:08;;;;;;;7.38;3.22;;;11.40;99.90;;;;;;5014003;28;20176;-86
2022/04/20 03:10:33;;;;;;;3.05;2.78;;;11.40;99.90;;;;;;5014002;28;20646;-80
2022/04/20 03:12:59;;;;;;;3.50;2.92;;;11.30;99.90;;;;;;5013916;28;20183;-81
2022/04/20 03:15:24;;;;;;;4.07;2.90;;;11.30;99.90;;;;;;5014109;28;20189;-80
2022/04/20 03:17:50;;;;;;;3.45;2.97;;;11.30;99.90;;;;;;5014038;28;20212;-89
2022/04/20 03:20:15;;;;;;;5.07;3.25;;;11.40;99.90;;;;;;5028577;28;20180;-81
2022/04/20 03:22:41;;;;;;;3.05;2.75;;;11.30;99.90;;;;;;5014005;28;20169;-85
2022/04/20 03:25:07;;;;;;;3.95;3.33;;;11.30;99.90;;;;;;5014036;28;20216;-80
2022/04/20 03:27:32;;;;;;;3.95;3.03;;;11.40;99.90;;;;;;5014165;28;20161;-87
2022/04/20 03:29:58;;;;;;;14.73;2.88;;;11.40;99.90;;;;;;5016669;28;20175;-84
2022/04/20 03:32:24;;;;;;;3.05;2.70;;;11.40;99.90;;;;;;5015964;28;20199;-77
2022/04/20 03:34:49;;;;;;;7.82;2.83;;;11.40;99.90;;;;;;5015355;28;20200;-76
2022/04/20 03:37:15;;;;;;;7.70;3.00;;;11.40;99.90;;;;;;5014314;28;20236;-74
2022/04/20 03:39:41;;;;;;;3.67;2.85;;;11.30;99.90;;;;;;5013398;28;20700;-75
2022/04/20 03:42:08;;;;;;;6.10;2.53;;;11.40;99.90;;;;;;5028326;28;20259;-79
2022/04/20 03:44:33;;;;;;;5.13;2.63;;;11.30;99.90;;;;;;5013208;28;20227;-83
2022/04/20 03:46:59;;;;;;;8.27;2.85;;;11.20;99.90;;;;;;5012866;28;20203;-83
2022/04/20 03:49:25;;;;;;;7.38;3.33;;;11.00;99.90;;;;;;5013367;28;20164;-89
2022/04/20 03:51:51;;;;;;;3.33;2.90;;;10.90;99.90;;;;;;5013945;28;20199;-79
2022/04/20 03:54:17;;;;;;;6.65;2.47;;;11.00;99.90;;;;;;5012762;28;20271;-83
2022/04/20 03:59:27;;;;;;;4.45;3.13;;;10.80;99.90;;;;;;5014843;28;20241;-80
2022/04/20 04:01:53;;;;;;;7.00;3.25;;;10.70;99.90;;;;;;5014604;28;20172;-75
2022/04/20 04:04:19;;;;;;;9.68;2.78;;;10.80;99.90;;;;;;5014073;28;20286;-84
2022/04/20 04:06:45;;;;;;;6.88;2.70;;;10.90;99.90;;;;;;5012868;28;20169;-84
2022/04/20 04:09:10;;;;;;;7.25;2.97;;;10.70;99.90;;;;;;5012557;28;20180;-80
2022/04/20 04:11:36;;;;;;;3.15;2.28;;;10.90;99.90;;;;;;5012752;28;20275;-81
2022/04/20 04:14:01;;;;;;;6.55;3.10;;;10.90;99.90;;;;;;5016787;28;20191;-80
2022/04/20 04:16:27;;;;;;;4.38;2.83;;;10.80;99.90;;;;;;5016550;28;20291;-81
2022/04/20 04:18:53;;;;;;;13.15;3.13;;;10.80;99.90;;;;;;5017261;28;20160;-81
2022/04/20 04:21:20;;;;;;;4.07;2.92;;;10.90;99.90;;;;;;5017196;28;20179;-80
2022/04/20 04:23:46;;;;;;;4.43;2.88;;;11.00;99.90;;;;;;5017694;28;20587;-81
2022/04/20 04:26:12;;;;;;;4.63;2.85;;;10.90;99.90;;;;;;5017207;28;20175;-82
2022/04/20 04:28:37;;;;;;;4.07;2.78;;;10.80;99.90;;;;;;5016767;28;20177;-82
2022/04/20 04:31:03;;;;;;;3.95;3.10;;;10.70;99.90;;;;;;5016818;28;20200;-84
2022/04/20 04:33:28;;;;;;;7.75;2.92;;;10.70;99.90;;;;;;5017598;28;20545;-77
2022/04/20 04:35:54;;;;;;;4.40;3.00;;;10.70;99.90;;;;;;5032749;28;20176;-80
2022/04/20 04:38:20;;;;;;;3.83;2.70;;;10.60;99.90;;;;;;5017068;28;20579;-86
2022/04/20 04:40:45;;;;;;;6.38;2.25;;;10.80;99.90;;;;;;5016963;28;20165;-90
2022/04/20 04:43:12;;;;;;;6.10;2.83;;;10.90;99.90;;;;;;5032939;28;20165;-88
2022/04/20 04:48:38;;;;;;;7.68;2.95;;;10.70;99.90;;;;;;5021117;28;20179;-86
2022/04/20 04:51:09;;;;;;;4.00;2.45;;;10.80;99.90;;;;;;5032252;28;20164;-89
2022/04/20 04:53:34;;;;;;;7.15;2.20;;;10.90;99.90;;;;;;5017225;28;20188;-90
2022/04/20 04:56:00;;;;;;;4.47;2.80;;;11.10;99.90;;;;;;5017687;28;20192;-87
2022/04/20 04:58:26;;;;;;;3.38;2.55;;;11.30;99.90;;;;;;5017616;28;20192;-90
2022/04/20 05:00:52;;;;;;;7.13;2.75;;;11.30;99.90;;;;;;5017612;28;20720;-92
2022/04/20 05:03:17;;;;;;;5.35;3.42;;;11.30;99.90;;;;;;5017603;28;20181;-93
2022/04/20 05:05:43;;;;;;;2.75;2.55;;;11.20;99.90;;;;;;5016866;28;20207;-83
2022/04/20 05:08:09;;;;;;;4.80;3.05;;;11.20;99.90;;;;;;5017012;28;20259;-85
2022/04/20 05:10:36;;;;;;;12.57;3.30;;;11.10;99.90;;;;;;5016592;28;20211;-83
2022/04/20 05:13:05;;;;;;;6.90;3.20;;;10.90;99.90;;;;;;5017002;28;20161;-82
2022/04/20 05:15:31;;;;;;;2.95;2.38;;;10.90;99.90;;;;;;5016196;28;20169;-85
2022/04/20 05:17:57;;;;;;;3.50;2.75;;;11.10;99.90;;;;;;5016652;28;20231;-80
2022/04/20 05:20:22;;;;;;;15.48;2.95;;;11.00;99.90;;;;;;5016679;28;20165;-85
2022/04/20 05:22:49;;;;;;;6.72;2.55;;;11.10;99.90;;;;;;5016168;28;20200;-78
2022/04/20 05:25:14;;;;;;;9.00;2.80;;;11.10;99.90;;;;;;5016459;28;20740;-84
2022/04/20 05:27:40;;;;;;;7.20;3.35;;;11.20;99.90;;;;;;5016546;28;20207;-84
2022/04/20 05:30:08;;;;;;;3.22;2.70;;;11.30;99.90;;;;;;5016035;28;20199;-89
2022/04/20 05:32:34;;;;;;;5.38;3.00;;;11.30;99.90;;;;;;5017523;28;20200;-82
2022/04/20 05:35:01;;;;;;;5.82;3.03;;;11.60;99.90;;;;;;5016582;28;20227;-89
2022/04/20 05:42:56;;;;;;;7.40;3.17;;;11.30;99.90;;;;;;5016102;28;20596;-84
2022/04/20 05:45:22;;;;;;;28.77;3.40;;;11.20;99.90;;;;;;5016302;28;20656;-85
2022/04/20 05:47:47;;;;;;;3.33;2.80;;;11.10;99.90;;;;;;5016050;28;20239;-81
2022/04/20 05:50:13;;;;;;;11.30;3.03;;;11.10;99.90;;;;;;5015638;28;20169;-80
2022/04/20 05:52:39;;;;;;;7.75;3.00;;;11.20;99.90;;;;;;5016596;28;20259;-87
2022/04/20 05:55:05;;;;;;;11.30;3.47;;;11.20;99.90;;;;;;5015902;28;20188;-87
2022/04/20 05:57:32;;;;;;;3.97;2.55;;;11.30;99.90;;;;;;5014580;28;20201;-80
2022/04/20 05:59:57;;;;;;;5.47;2.88;;;11.30;99.90;;;;;;5015346;28;20641;-84
2022/04/20 06:02:23;;;;;;;13.38;3.00;;;11.40;99.90;;;;;;5015762;28;20179;-83
2022/04/20 06:04:48;;;;;;;6.88;2.85;;;11.30;99.90;;;;;;5015199;28;20191;-82
2022/04/20 06:07:14;;;;;;;2.72;2.22;;;11.40;99.90;;;;;;5015818;28;20193;-84
2022/04/20 06:09:40;;;;;;;5.18;2.33;;;11.40;99.90;;;;;;5016212;28;20164;-90
2022/04/20 06:12:07;;;;;;;24.40;3.35;;;11.30;99.90;;;;;;5015779;28;20292;-84
2022/04/20 06:14:33;;;;;;;27.30;3.25;;;11.60;99.90;;;;;;5015244;28;20238;-79
2022/04/20 06:16:58;;;;;;;2.70;2.25;;;11.50;99.90;;;;;;5015170;28;20204;-83
2022/04/20 06:19:24;;;;;;;9.95;2.42;;;11.40;99.90;;;;;;5015907;28;20208;-79
2022/04/20 06:21:50;;;;;;;7.05;3.08;;;11.40;99.90;;;;;;5015639;28;20168;-83
2022/04/20 06:24:15;;;;;;;3.22;2.08;;;11.40;99.90;;;;;;5013738;28;20216;-83
2022/04/20 06:26:41;;;;;;;17.00;2.95;;;11.60;99.90;;;;;;5016095;28;20172;-85
2022/04/20 06:29:07;;;;;;;7.05;2.47;;;11.50;99.90;;;;;;5014749;28;20207;-83
2022/04/20 06:31:33;;;;;;;7.90;3.00;;;11.60;99.90;;;;;;5015716;28;20169;-79
2022/04/20 06:33:59;;;;;;;10.25;2.80;;;11.70;99.90;;;;;;5014673;28;20195;-76
2022/04/20 06:36:25;;;;;;;11.05;2.53;;;11.80;99.90;;;;;;5013611;28;20207;-81
2022/04/20 06:38:51;;;;;;;4.75;3.42;;;11.80;99.90;;;;;;5014714;28;20164;-87
2022/04/20 06:41:17;;;;;;;7.22;2.50;;;11.80;99.90;;;;;;5014613;28;20221;-81
2022/04/20 06:43:43;;;;;;;3.45;3.08;;;11.90;99.90;;;;;;5015628;28;20259;-85
2022/04/20 06:46:09;;;;;;;3.30;2.20;;;12.00;99.90;;;;;;5014928;28;20672;-82
2022/04/20 06:48:34;;;;;;;5.28;2.63;;;12.10;99.90;;;;;;5016516;28;20744;-91
2022/04/20 06:51:03;;;;;;;8.52;3.13;;;12.10;99.90;;;;;;5015575;28;20164;-81
2022/04/20 06:58:58;;;;;;;19.10;2.78;;;12.00;99.90;;;;;;5020725;28;20206;-84
2022/04/20 07:01:23;;;;;;;7.50;3.20;;;12.20;99.90;;;;;;5016670;28;20255;-90
2022/04/20 07:03:49;;;;;;;8.57;2.65;;;12.40;99.90;;;;;;5015343;28;20192;-89
2022/04/20 07:06:15;;;;;;;14.95;2.97;;;12.30;99.90;;;;;;5017911;28;20173;-77
2022/04/20 07:08:41;;;;;;;9.75;2.90;;;12.40;99.90;;;;;;5013984;28;20223;-80
2022/04/20 07:11:07;;;;;;;3.78;2.58;;;12.60;99.90;;;;;;5012708;28;20930;-77
2022/04/20 07:13:32;;;;;;;12.32;2.65;;;12.50;99.90;;;;;;5014271;28;20180;-77
2022/04/20 07:15:58;;;;;;;10.00;3.38;;;12.60;99.90;;;;;;5013837;28;20176;-81
2022/04/20 07:18:24;;;;;;;10.25;3.40;;;12.60;99.90;;;;;;5013629;28;20215;-77
2022/04/20 07:20:50;;;;;;;14.48;3.42;;;12.50;99.90;;;;;;5013530;28;20222;-78
2022/04/20 07:23:18;;;;;;;6.25;2.97;;;12.50;99.90;;;;;;5014375;28;20211;-94
2022/04/20 07:25:43;;;;;;;12.27;2.85;;;12.70;99.90;;;;;;5030249;28;20541;-86
2022/04/20 07:28:09;;;;;;;5.78;2.65;;;12.90;99.90;;;;;;5015281;28;20176;-84
2022/04/20 07:30:36;;;;;;;7.63;3.22;;;12.90;99.90;;;;;;5013997;28;20173;-89
2022/04/20 07:33:02;;;;;;;8.93;3.08;;;12.90;99.90;;;;;;5017366;28;20168;-88
2022/04/20 07:35:29;;;;;;;5.55;3.25;;;12.80;99.90;;;;;;5016922;28;20176;-80
2022/04/20 07:38:14;;;;;;;13.93;2.72;;;13.00;99.90;;;;;;5017154;28;20232;-96
2022/04/20 07:40:44;;;;;;;4.18;2.60;;;13.20;99.90;;;;;;5011180;28;20176;-88
2022/04/20 07:43:09;;;;;;;7.03;2.60;;;13.00;99.90;;;;;;5025704;28;20172;-84
2022/04/20 07:45:35;;;;;;;24.92;3.13;;;13.00;99.90;;;;;;5006218;28;20177;-85
2022/04/20 07:48:01;;;;;;;10.65;2.88;;;13.00;99.90;;;;;;4992301;28;20158;-78
2022/04/20 07:50:27;;;;;;;7.60;2.63;;;13.00;99.90;;;;;;4993491;28;20177;-88
2022/04/20 07:52:56;;;;;;;6.05;3.15;;;13.00;99.90;;;;;;5011576;28;20187;-81
2022/04/20 07:55:27;;;;;;;12.82;3.20;;;13.00;99.90;;;;;;5015019;28;20192;-85
2022/04/20 07:57:59;;;;;;;8.48;3.03;;;13.20;99.90;;;;;;5030855;28;20211;-80
2022/04/20 08:00:26;;;;;;;4.03;2.67;;;13.50;99.90;;;;;;5015479;28;20169;-86
2022/04/20 08:03:11;;;;;;;13.85;3.28;;;13.40;99.90;;;;;;5013185;28;20194;-93
2022/04/20 08:05:37;;;;;;;9.25;2.65;;;13.50;99.90;;;;;;4996365;28;20162;-90
2022/04/20 08:08:03;;;;;;;4.57;2.38;;;13.60;99.80;;;;;;5008887;28;20267;-91
2022/04/20 08:10:29;;;;;;;5.07;2.58;;;13.30;99.90;;;;;;5010737;28;20266;-81
2022/04/20 08:12:54;;;;;;;6.88;2.70;;;13.30;99.90;;;;;;5010437;28;20180;-86
2022/04/20 08:15:20;;;;;;;3.85;2.95;;;13.60;99.90;;;;;;5010625;28;20187;-83
2022/04/20 08:17:46;;;;;;;6.55;2.97;;;13.60;99.90;;;;;;5010017;28;20549;-81
2022/04/20 08:20:12;;;;;;;8.90;3.05;;;13.80;99.90;;;;;;4990534;28;20168;-85
2022/04/20 08:22:44;;;;;;;3.70;2.90;;;14.00;99.40;;;;;;5010165;28;20259;-81
2022/04/20 08:25:12;;;;;;;7.80;3.10;;;13.80;99.80;;;;;;5008142;28;20227;-77
2022/04/20 08:27:38;;;;;;;7.63;3.08;;;13.90;99.50;;;;;;5006402;28;20229;-77
2022/04/20 08:30:06;;;;;;;3.80;3.05;;;13.90;99.60;;;;;;5008365;28;20173;-78
2022/04/20 08:32:32;;;;;;;5.20;3.15;;;14.10;99.30;;;;;;5008932;28;20215;-89
2022/04/20 08:34:57;;;;;;;3.75;2.75;;;14.20;99.30;;;;;;5010044;28;20620;-88
2022/04/20 08:37:23;;;;;;;17.38;3.70;;;14.20;99.50;;;;;;5027569;28;20220;-83
2022/04/20 08:39:49;;;;;;;3.75;2.88;;;14.50;99.20;;;;;;5012385;28;20200;-82
2022/04/20 08:42:24;;;;;;;10.05;3.22;;;14.80;98.60;;;;;;5009934;28;20187;-78
2022/04/20 08:44:51;;;;;;;3.72;2.92;;;14.70;98.70;;;;;;5010718;28;20258;-88
2022/04/20 08:47:22;;;;;;;8.32;2.97;;;14.70;98.30;;;;;;5011200;28;20184;-83
2022/04/20 08:49:49;;;;;;;8.65;2.72;;;14.80;98.00;;;;;;5011503;28;20172;-78
2022/04/20 08:55:04;;;;;;;3.55;2.90;;;15.00;97.80;;;;;;5010847;28;20716;-80
2022/04/20 08:57:32;;;;;;;4.53;2.50;;;15.00;97.30;;;;;;5014884;28;20263;-80
2022/04/20 08:59:58;;;;;;;3.97;3.15;;;15.00;97.20;;;;;;5014453;28;20187;-81
2022/04/20 09:02:24;;;;;;;7.60;2.75;;;15.10;97.20;;;;;;5014648;28;20940;-82
2022/04/20 09:04:51;;;;;;;5.05;2.75;;;15.30;96.00;;;;;;5013369;28;20196;-83
2022/04/20 09:07:18;;;;;;;5.75;4.05;;;15.30;97.20;;;;;;5015415;28;20175;-83
2022/04/20 09:09:44;;;;;;;3.65;2.60;;;15.40;96.90;;;;;;5015824;28;20169;-82
2022/04/20 09:12:25;;;;;;;3.90;2.25;;;15.60;96.00;;;;;;5014840;28;20164;-81
2022/04/20 09:14:52;;;;;;;10.30;3.08;;;15.50;95.10;;;;;;5030413;28;20191;-87
2022/04/20 09:17:21;;;;;;;7.97;2.47;;;15.50;95.20;;;;;;5029278;28;20678;-85
2022/04/20 09:19:51;;;;;;;11.80;2.53;;;15.60;95.30;;;;;;5030113;28;20176;-84
2022/04/20 09:22:23;;;;;;;4.07;3.30;;;15.80;95.40;;;;;;5030410;28;20230;-85
2022/04/20 09:25:00;;;;;;;8.43;2.95;;;15.90;95.00;;;;;;5030878;28;20200;-84
2022/04/20 09:27:27;;;;;;;6.00;2.55;;;16.10;94.20;;;;;;5015483;28;20656;-85
2022/04/20 09:29:56;;;;;;;5.28;2.63;;;16.20;93.90;;;;;;5015473;28;20167;-83
2022/04/20 09:32:41;;;;;;;3.03;2.72;;;16.00;93.90;;;;;;5030958;28;20172;-89
2022/04/20 09:35:13;;;;;;;5.55;2.53;;;15.90;93.90;;;;;;5015171;28;20191;-84
2022/04/20 09:37:40;;;;;;;2.85;2.42;;;16.10;93.80;;;;;;5014974;28;20204;-84
2022/04/20 09:40:12;;;;;;;10.88;2.63;;;16.10;93.40;;;;;;5030072;28;20172;-85
2022/04/20 09:43:00;;;;;;;4.07;2.35;;;16.20;93.50;;;;;;5029677;28;20180;-84
2022/04/20 09:45:26;;;;;;;5.30;2.92;;;16.40;92.30;;;;;;5014167;28;20211;-84
2022/04/20 09:50:35;;;;;;;7.80;3.22;;;16.20;91.80;;;;;;5014920;28;20775;-83
2022/04/20 09:53:06;;;;;;;18.92;2.50;;;16.40;92.30;;;;;;5029451;28;20259;-85
2022/04/20 09:55:36;;;;;;;2.60;1.90;;;16.40;92.00;;;;;;5015274;28;20175;-86
2022/04/20 09:58:09;;;;;;;4.38;2.30;;;16.50;91.60;;;;;;5014572;28;20273;-83
2022/04/20 10:00:45;;;;;;;4.13;2.17;;;16.60;91.40;;;;;;5018434;28;20210;-87
2022/04/20 10:03:10;;;;;;;3.72;2.20;;;16.70;91.70;;;;;;5014808;28;20168;-85
2022/04/20 10:05:39;;;;;;;5.53;2.20;;;16.70;91.20;;;;;;5029804;28;20267;-86
2022/04/20 10:08:05;;;;;;;11.32;2.40;;;16.80;90.90;;;;;;5030355;28;20176;-86
2022/04/20 10:10:33;;;;;;;6.55;2.30;;;16.60;91.10;;;;;;5029076;28;20176;-87
2022/04/20 10:13:01;;;;;;;5.10;2.53;;;16.60;91.50;;;;;;5030147;28;20704;-88
2022/04/20 10:18:20;;;;;;;3.13;2.40;;;16.80;91.70;;;;;;5013552;28;20274;-79
2022/04/20 10:20:51;;;;;;;5.63;2.83;;;16.70;91.60;;;;;;5014624;28;20653;-83
2022/04/20 10:23:22;;;;;;;5.18;2.17;;;16.70;91.60;;;;;;5030556;28;20177;-83
2022/04/20 10:25:53;;;;;;;4.40;2.55;;;16.90;91.50;;;;;;5030273;28;20184;-84
2022/04/20 10:28:45;;;;;;;6.88;2.35;;;16.80;91.60;;;;;;5030043;28;20168;-82
2022/04/20 10:31:29;;;;;;;11.35;2.97;;;17.00;90.90;;;;;;5014276;28;20180;-89
2022/04/20 10:33:55;;;;;;;3.05;2.65;;;17.10;90.80;;;;;;5012869;28;20188;-82
2022/04/20 10:36:29;;;;;;;17.90;3.08;;;17.00;90.70;;;;;;5014283;28;20208;-78
2022/04/20 10:39:22;;;;;;;6.13;2.28;;;16.90;90.90;;;;;;5029361;28;20259;-81
2022/04/20 10:42:11;;;;;;;7.40;3.00;;;16.80;90.90;;;;;;5014300;28;20172;-77
2022/04/20 10:44:55;;;;;;;4.28;2.60;;;17.10;91.00;;;;;;5014378;28;20184;-77
2022/04/20 10:47:42;;;;;;;11.45;2.40;;;17.30;90.70;;;;;;5014974;28;20164;-80
2022/04/20 10:50:11;;;;;;;5.93;2.67;;;17.30;90.30;;;;;;5013857;28;20165;-81
2022/04/20 10:52:38;;;;;;;10.30;3.58;;;17.10;90.80;;;;;;5014065;28;20219;-82
2022/04/20 10:55:04;;;;;;;10.85;3.17;;;17.10;90.90;;;;;;5013899;28;20188;-82
2022/04/20 10:57:35;;;;;;;12.80;3.42;;;17.00;90.80;;;;;;5013573;28;20208;-78
2022/04/20 11:00:16;;;;;;;4.70;2.42;;;17.00;90.40;;;;;;5014309;28;20208;-86
2022/04/20 11:02:53;;;;;;;4.97;3.17;;;17.00;90.50;;;;;;5012867;28;20178;-82
2022/04/20 11:05:21;;;;;;;20.92;3.10;;;16.90;90.80;;;;;;5013565;28;20184;-78
2022/04/20 11:08:05;;;;;;;13.20;2.55;;;16.90;90.60;;;;;;5013906;28;20252;-86
2022/04/20 11:10:32;;;;;;;10.85;2.75;;;17.20;90.80;;;;;;5013645;28;20645;-84
2022/04/20 11:19:09;;;;;;;17.65;2.25;;;17.40;90.30;;;;;;5013527;28;20556;-78
2022/04/20 11:21:36;;;;;;;15.35;2.22;;;17.60;90.40;;;;;;5013460;28;20258;-85
2022/04/20 11:24:03;;;;;;;8.02;2.35;;;17.70;89.30;;;;;;5013718;28;20258;-77
2022/04/20 11:26:37;;;;;;;7.68;2.60;;;17.60;89.90;;;;;;5013981;28;20165;-85
2022/04/20 11:29:17;;;;;;;2.85;2.28;;;17.40;90.00;;;;;;5012134;28;20257;-79
2022/04/20 11:31:51;;;;;;;3.55;2.00;;;17.50;89.10;;;;;;5014120;28;20252;-81
2022/04/20 11:34:20;;;;;;;6.88;3.45;;;17.40;89.10;;;;;;5013736;28;20651;-82
2022/04/20 11:36:48;;;;;;;8.05;2.25;;;17.30;89.30;;;;;;5013718;28;20677;-79
2022/04/20 11:39:16;;;;;;;3.53;2.17;;;17.40;89.60;;;;;;5013425;28;20195;-82
2022/04/20 11:41:46;;;;;;;6.70;2.70;;;17.40;89.10;;;;;;5013285;28;20168;-79
2022/04/20 11:44:21;;;;;;;6.35;2.75;;;17.10;89.70;;;;;;5012908;28;20685;-80
2022/04/20 11:46:48;;;;;;;3.03;2.17;;;17.10;89.90;;;;;;5013616;28;20183;-85
2022/04/20 11:49:14;;;;;;;3.60;1.80;;;17.40;90.40;;;;;;5014275;28;20156;-80
2022/04/20 11:51:58;;;;;;;4.93;2.10;;;17.30;89.40;;;;;;5013197;28;20172;-89
2022/04/20 11:54:25;;;;;;;11.88;2.65;;;17.40;89.30;;;;;;5014134;28;20188;-80
2022/04/20 11:56:51;;;;;;;14.57;2.15;;;17.50;89.30;;;;;;5013839;28;20265;-87
2022/04/20 11:59:27;;;;;;;4.35;1.90;;;17.60;89.20;;;;;;5013537;28;20221;-84
2022/04/20 12:01:54;;;;;;;7.72;2.45;;;17.50;89.00;;;;;;5021254;28;20210;-78
2022/04/20 12:04:22;;;;;;;10.25;2.50;;;17.50;89.80;;;;;;5020044;28;20197;-77
2022/04/20 12:06:59;;;;;;;9.95;2.20;;;17.40;90.10;;;;;;5012425;28;20207;-77
2022/04/20 12:09:26;;;;;;;14.88;2.40;;;17.50;90.20;;;;;;5012750;28;20695;-77
2022/04/20 12:11:57;;;;;;;8.90;2.72;;;17.60;89.40;;;;;;5012339;28;20160;-77
2022/04/20 12:14:26;;;;;;;6.25;2.65;;;17.70;90.10;;;;;;5012470;28;20223;-78
2022/04/20 12:16:58;;;;;;;4.38;2.50;;;17.90;89.60;;;;;;5012574;28;20310;-78
2022/04/20 12:19:23;;;;;;;8.07;2.90;;;17.90;89.10;;;;;;5012483;28;20255;-79
2022/04/20 12:21:50;;;;;;;2.65;2.45;;;17.90;88.90;;;;;;5012528;28;20576;-81
2022/04/20 12:24:25;;;;;;;8.60;2.70;;;17.80;88.90;;;;;;5012294;28;20211;-79
2022/04/20 12:26:52;;;;;;;6.70;2.10;;;17.70;89.90;;;;;;5012312;28;20171;-78
2022/04/20 12:29:29;;;;;;;17.67;2.60;;;17.70;90.10;;;;;;5012352;28;20207;-77
2022/04/20 12:31:55;;;;;;;8.25;2.92;;;17.70;89.00;;;;;;5012645;28;20226;-80
2022/04/20 12:34:24;;;;;;;5.80;2.38;;;17.70;88.60;;;;;;5015523;28;20275;-78
2022/04/20 12:37:06;;;;;;;3.33;2.05;;;17.70;89.00;;;;;;5031446;28;20694;-78
2022/04/20 12:39:31;;;;;;;18.88;2.20;;;17.70;89.70;;;;;;5016344;28;20161;-78
2022/04/20 12:42:10;;;;;;;7.95;3.00;;;17.70;89.30;;;;;;5015839;28;20693;-78
2022/04/20 12:44:58;;;;;;;2.85;2.20;;;17.80;89.40;;;;;;5016367;28;20682;-77
2022/04/20 12:47:27;;;;;;;6.13;2.53;;;17.80;89.10;;;;;;5016049;28;20578;-78
2022/04/20 12:49:53;;;;;;;8.38;2.58;;;17.70;89.80;;;;;;5025696;28;20172;-81
2022/04/20 12:52:24;;;;;;;6.32;2.90;;;17.80;89.80;;;;;;5022094;28;20169;-78
2022/04/20 12:55:13;;;;;;;3.75;2.25;;;17.90;89.40;;;;;;5026169;28;20196;-84
2022/04/20 13:03:31;;;;;;;8.90;2.50;;;18.10;89.20;;;;;;5031443;28;20198;-83
2022/04/20 13:05:56;;;;;;;13.68;2.38;;;18.20;87.80;;;;;;5030787;28;20187;-77
2022/04/20 13:08:22;;;;;;;5.78;2.30;;;18.00;88.70;;;;;;5025672;28;20594;-80
2022/04/20 13:10:49;;;;;;;2.75;2.42;;;18.10;88.50;;;;;;5033064;28;20212;-79
2022/04/20 13:13:15;;;;;;;36.25;3.22;;;18.00;88.50;;;;;;5015917;28;20171;-85
2022/04/20 13:15:41;;;;;;;7.30;2.53;;;18.20;89.40;;;;;;5016887;28;20165;-88
2022/04/20 13:18:09;;;;;;;9.07;2.53;;;18.40;89.30;;;;;;5016510;28;20200;-88
2022/04/20 13:20:35;;;;;;;7.10;2.30;;;18.50;89.30;;;;;;5016164;28;20175;-85
2022/04/20 13:23:01;;;;;;;3.63;2.15;;;18.50;87.90;;;;;;5015892;28;20200;-81
2022/04/20 13:28:11;;;;;;;6.13;2.40;;;18.40;88.60;;;;;;5017704;28;20515;-82
2022/04/20 13:30:39;;;;;;;5.97;2.72;;;18.30;89.10;;;;;;5016905;28;20188;-80